Time;durP1;ratioP1;P1;durP2;ratioP2;P2;SDS_P1;SDS_P2;PMS_P1;PMS_P2;Temp;Humidity;BMP_temperature;BMP_pressure;BME280_temperature;BME280_humidity;BME280_pressure;Samples;Min_cycle;Max_cycle;Signal;HPM_P1;HPM_P2
2023/10/05 05:48:35;;;;;;;7.07;3.93;;;;;;;17.69;95.01;100019.97;5065110;28;20561;-60
2023/10/05 05:51:06;;;;;;;6.70;2.97;;;;;;;17.59;95.67;100022.50;5065616;28;20581;-60
2023/10/05 05:53:33;;;;;;;8.83;3.90;;;;;;;17.47;96.57;100031.34;5065844;28;20196;-60
2023/10/05 05:56:03;;;;;;;4.60;3.00;;;;;;;17.39;97.76;100034.59;5065431;28;20702;-58
2023/10/05 05:58:29;;;;;;;4.50;3.17;;;;;;;17.35;98.54;100037.56;5065821;28;20202;-58
2023/10/05 06:00:57;;;;;;;5.90;3.70;;;;;;;17.36;99.15;100032.25;5065597;28;20656;-59
2023/10/05 06:03:25;;;;;;;5.13;3.80;;;;;;;17.42;100.00;100033.47;5065284;28;20685;-58
2023/10/05 06:05:53;;;;;;;12.17;4.30;;;;;;;17.53;99.67;100041.13;5064961;28;20237;-61
2023/10/05 06:08:20;;;;;;;5.63;3.60;;;;;;;17.71;96.34;100038.72;5065136;28;20204;-58
2023/10/05 06:10:47;;;;;;;6.87;3.43;;;;;;;17.91;95.90;100043.97;5065388;28;20204;-58
2023/10/05 06:13:14;;;;;;;4.73;3.53;;;;;;;18.16;92.25;100047.81;5065443;28;20196;-58
2023/10/05 06:15:41;;;;;;;7.47;3.60;;;;;;;18.38;88.40;100041.53;5065242;28;20209;-58
2023/10/05 06:18:08;;;;;;;4.77;3.27;;;;;;;18.64;87.43;100046.94;5065259;28;20420;-59
2023/10/05 06:20:35;;;;;;;5.73;3.00;;;;;;;18.92;84.37;100045.28;5064744;28;20221;-60
2023/10/05 06:23:05;;;;;;;3.33;2.77;;;;;;;19.13;82.24;100048.47;5065286;28;20219;-62
2023/10/05 06:25:32;;;;;;;4.13;2.90;;;;;;;19.34;81.65;100039.66;5064939;28;20213;-61
2023/10/05 06:27:59;;;;;;;3.63;2.60;;;;;;;19.55;79.54;100053.22;5064904;28;20679;-61
2023/10/05 06:30:26;;;;;;;4.37;2.57;;;;;;;19.68;78.90;100053.69;5064983;28;20236;-61
2023/10/05 06:32:54;;;;;;;7.00;2.90;;;;;;;19.73;76.11;100055.88;5064765;28;20714;-62
2023/10/05 06:35:21;;;;;;;16.10;3.00;;;;;;;19.91;77.18;100048.09;5064755;28;20638;-61
2023/10/05 06:37:49;;;;;;;5.13;3.03;;;;;;;20.09;76.00;100053.28;5064567;28;20759;-62
2023/10/05 06:40:22;;;;;;;7.30;3.17;;;;;;;20.33;75.51;100044.88;5064805;28;20228;-62
2023/10/05 06:42:49;;;;;;;4.17;2.23;;;;;;;20.57;75.38;100059.91;5064635;28;20265;-61
2023/10/05 06:45:17;;;;;;;9.27;2.73;;;;;;;20.80;72.93;100060.22;5064388;28;20213;-61
2023/10/05 06:47:44;;;;;;;5.67;2.80;;;;;;;21.00;72.34;100061.63;5074302;28;20213;-61
2023/10/05 06:50:11;;;;;;;6.23;2.80;;;;;;;21.09;72.69;100056.47;5071217;28;20238;-61
2023/10/05 06:52:39;;;;;;;6.63;2.87;;;;;;;21.26;71.76;100063.38;5071119;28;20616;-61
2023/10/05 06:55:08;;;;;;;5.43;3.00;;;;;;;21.41;69.58;100061.00;5071170;28;20206;-63
2023/10/05 06:57:37;;;;;;;4.60;2.43;;;;;;;21.41;66.80;100059.25;5071091;28;20251;-63
2023/10/05 07:00:11;;;;;;;4.60;2.40;;;;;;;21.46;68.54;100061.38;5071376;28;20231;-63
2023/10/05 07:02:39;;;;;;;8.10;2.40;;;;;;;21.67;70.70;100058.34;5071282;28;20377;-63
2023/10/05 07:05:07;;;;;;;4.33;2.33;;;;;;;21.82;66.06;100061.97;5071140;28;20200;-63
2023/10/05 07:07:34;;;;;;;5.80;2.47;;;;;;;22.02;66.16;100062.50;5070931;28;20225;-63
2023/10/05 07:10:03;;;;;;;7.13;3.00;;;;;;;22.25;69.14;100072.28;5070776;28;20678;-62
2023/10/05 07:12:30;;;;;;;4.60;3.00;;;;;;;22.30;60.89;100076.03;5070884;28;20208;-63
2023/10/05 07:14:58;;;;;;;5.50;3.10;;;;;;;22.44;64.52;100074.59;5070885;28;20212;-63
2023/10/05 07:17:26;;;;;;;4.30;2.40;;;;;;;22.55;63.04;100079.47;5070585;28;20229;-63
2023/10/05 07:19:54;;;;;;;4.73;2.77;;;;;;;22.81;62.76;100071.47;5070717;28;20588;-63
2023/10/05 07:22:22;;;;;;;5.80;3.00;;;;;;;23.04;62.16;100083.84;5070749;28;20226;-63
2023/10/05 07:24:49;;;;;;;4.73;2.70;;;;;;;23.38;61.51;100085.34;5070642;28;20459;-62
2023/10/05 07:27:16;;;;;;;4.20;2.80;;;;;;;23.59;59.91;100085.59;5070458;28;20271;-63
2023/10/05 07:29:45;;;;;;;4.55;2.70;;;;;;;23.59;56.06;100088.19;5070735;28;20214;-63
2023/10/05 07:32:13;;;;;;;5.57;4.00;;;;;;;23.82;58.43;100082.22;5070581;28;20207;-63
2023/10/05 07:34:41;;;;;;;4.68;3.20;;;;;;;24.00;55.89;100089.75;5070663;28;20217;-64
2023/10/05 07:37:10;;;;;;;7.45;2.95;;;;;;;24.25;58.06;100086.00;5070379;28;20646;-62
2023/10/05 07:39:37;;;;;;;14.20;6.32;;;;;;;24.56;59.02;100085.94;5070301;28;20222;-63
2023/10/05 07:42:05;;;;;;;5.90;3.40;;;;;;;24.83;60.25;100084.53;5069360;28;20585;-63
2023/10/05 07:44:32;;;;;;;7.30;4.55;;;;;;;24.67;54.91;100092.56;5070050;28;20202;-63
2023/10/05 07:46:59;;;;;;;4.47;3.03;;;;;;;24.92;57.11;100090.50;5070061;28;20518;-63
2023/10/05 07:49:27;;;;;;;4.75;2.63;;;;;;;24.95;52.52;100097.19;5069726;28;20249;-63
2023/10/05 07:51:54;;;;;;;4.55;2.92;;;;;;;25.12;56.17;100084.72;5070068;28;20735;-62
2023/10/05 07:54:21;;;;;;;3.97;2.92;;;;;;;25.32;52.55;100088.47;5070178;28;20219;-62
2023/10/05 07:56:48;;;;;;;6.13;2.83;;;;;;;25.47;54.44;100089.25;5069780;28;20262;-62
2023/10/05 07:59:15;;;;;;;6.55;3.00;;;;;;;25.67;54.66;100088.66;5069344;28;20714;-63
2023/10/05 08:01:43;;;;;;;6.55;3.35;;;;;;;25.88;56.03;100090.53;5069517;28;20199;-63
2023/10/05 08:04:11;;;;;;;6.43;2.90;;;;;;;25.74;50.95;100082.50;5069888;28;20237;-63
2023/10/05 08:06:43;;;;;;;3.55;2.33;;;;;;;25.90;51.44;100091.97;5070078;28;20295;-64
2023/10/05 08:09:15;;;;;;;9.23;3.90;;;;;;;26.09;52.08;100087.09;5069787;28;20195;-64
2023/10/05 08:11:42;;;;;;;6.72;3.38;;;;;;;26.33;51.95;100083.31;5070192;28;20206;-63
2023/10/05 08:14:09;;;;;;;5.85;2.85;;;;;;;26.59;52.71;100078.28;5069622;28;20206;-64
2023/10/05 08:16:36;;;;;;;5.43;3.03;;;;;;;26.52;47.60;100087.91;5069643;28;20203;-63
2023/10/05 08:19:05;;;;;;;5.10;3.20;;;;;;;26.56;50.01;100081.28;5069478;28;20253;-63
2023/10/05 08:21:32;;;;;;;5.68;3.53;;;;;;;26.45;49.13;100079.16;5069677;28;20211;-65
2023/10/05 08:24:01;;;;;;;4.75;2.78;;;;;;;26.42;47.55;100080.34;5069874;28;20202;-63
2023/10/05 08:26:29;;;;;;;6.50;2.95;;;;;;;26.69;50.50;100079.75;5069431;28;20202;-63
2023/10/05 08:28:56;;;;;;;5.07;3.20;;;;;;;26.90;49.52;100077.06;5069893;28;20206;-63
2023/10/05 08:31:24;;;;;;;5.53;3.30;;;;;;;27.11;48.09;100070.91;5069055;28;20252;-64
2023/10/05 08:33:52;;;;;;;7.55;3.10;;;;;;;27.17;48.61;100075.44;5069140;28;20217;-63
2023/10/05 08:36:19;;;;;;;5.13;3.35;;;;;;;27.17;48.29;100075.44;5068967;28;20575;-63
2023/10/05 08:38:48;;;;;;;5.40;3.40;;;;;;;27.34;49.10;100075.09;5068829;28;20235;-64
2023/10/05 08:41:31;;;;;;;5.55;3.40;;;;;;;27.42;45.55;100073.09;5068966;28;20664;-63
2023/10/05 08:43:59;;;;;;;5.47;2.88;;;;;;;27.58;48.63;100071.97;5068990;28;20194;-64
2023/10/05 08:46:27;;;;;;;5.32;3.15;;;;;;;27.69;46.88;100066.13;5069110;28;20376;-63
2023/10/05 08:48:56;;;;;;;9.10;3.53;;;;;;;27.93;46.73;100069.25;5069098;28;20261;-63
2023/10/05 08:51:24;;;;;;;4.97;2.80;;;;;;;28.10;47.13;100075.72;5068662;28;20490;-63
2023/10/05 08:53:55;;;;;;;6.68;2.97;;;;;;;27.89;45.57;100073.25;5068820;28;20325;-65
2023/10/05 08:56:24;;;;;;;5.53;3.47;;;;;;;27.76;46.95;100077.44;5068716;28;20217;-64
2023/10/05 08:58:53;;;;;;;6.75;3.60;;;;;;;27.88;47.28;100082.16;5068876;28;20330;-64
2023/10/05 09:01:24;;;;;;;7.47;3.55;;;;;;;27.83;44.65;100081.94;5068531;28;20595;-64
2023/10/05 09:04:01;;;;;;;7.15;3.08;;;;;;;28.05;44.77;100078.16;5068737;28;20598;-64
2023/10/05 09:06:30;;;;;;;5.88;3.55;;;;;;;28.28;46.12;100077.75;5068837;28;20186;-64
2023/10/05 09:09:07;;;;;;;8.65;3.30;;;;;;;28.29;45.98;100083.81;5069537;28;20282;-63
2023/10/05 09:11:35;;;;;;;9.75;3.58;;;;;;;28.49;46.06;100058.34;5068933;28;20598;-63
2023/10/05 09:14:12;;;;;;;4.60;2.88;;;;;;;28.66;46.11;100071.88;5068550;28;20405;-63
2023/10/05 09:16:43;;;;;;;7.80;3.80;;;;;;;28.63;46.42;100075.72;5068861;28;20202;-63
2023/10/05 09:19:15;;;;;;;5.60;3.20;;;;;;;28.97;47.96;100071.19;5068839;28;20206;-62
2023/10/05 09:21:44;;;;;;;10.30;3.47;;;;;;;29.20;45.44;100076.00;5068384;28;20225;-63
2023/10/05 09:24:21;;;;;;;8.05;3.70;;;;;;;29.19;41.58;100078.88;5068375;28;20190;-63
2023/10/05 09:27:09;;;;;;;4.80;2.90;;;;;;;29.06;45.77;100070.00;5068402;28;20716;-63
2023/10/05 09:29:37;;;;;;;7.55;3.15;;;;;;;29.25;44.59;100067.50;5068462;28;20253;-63
2023/10/05 09:32:08;;;;;;;5.05;3.20;;;;;;;29.37;43.38;100065.81;5068593;28;20203;-63
2023/10/05 09:34:41;;;;;;;9.85;3.90;;;;;;;29.56;44.38;100064.13;5068400;28;20198;-63
2023/10/05 09:37:09;;;;;;;7.35;3.83;;;;;;;29.67;45.16;100065.28;5068125;28;20251;-63
2023/10/05 09:39:42;;;;;;;6.82;3.58;;;;;;;29.41;44.29;100063.56;5068335;28;20663;-63
2023/10/05 09:42:16;;;;;;;5.78;2.92;;;;;;;29.37;43.25;100065.81;5068147;28;20753;-63
2023/10/05 09:44:50;;;;;;;7.10;3.97;;;;;;;29.39;41.11;100068.25;5068333;28;20253;-63
2023/10/05 09:47:21;;;;;;;6.80;3.35;;;;;;;29.45;44.98;100067.41;5068082;28;20602;-63
2023/10/05 09:49:50;;;;;;;4.72;3.00;;;;;;;29.50;43.66;100060.50;5068640;28;20194;-63
2023/10/05 09:52:21;;;;;;;8.73;3.97;;;;;;;29.66;42.66;100058.41;5068056;28;20214;-63
2023/10/05 09:54:49;;;;;;;5.28;3.58;;;;;;;29.46;43.26;100064.56;5068106;28;20203;-63
2023/10/05 09:57:20;;;;;;;10.57;3.58;;;;;;;29.60;43.39;100053.94;5067956;28;20781;-63
2023/10/05 09:59:57;;;;;;;5.38;3.00;;;;;;;29.80;43.88;100054.66;5068221;28;20194;-63
2023/10/05 10:02:27;;;;;;;5.70;3.08;;;;;;;30.00;43.94;100052.69;5068038;28;20581;-63
2023/10/05 10:04:57;;;;;;;8.13;3.63;;;;;;;29.71;41.10;100056.75;5068023;28;20218;-63
2023/10/05 10:07:26;;;;;;;5.68;3.03;;;;;;;29.67;40.71;100057.38;5068423;28;20631;-63
2023/10/05 10:09:56;;;;;;;6.32;3.30;;;;;;;29.78;41.25;100046.16;5068158;28;20194;-63
2023/10/05 10:12:33;;;;;;;8.77;3.63;;;;;;;29.68;42.59;100040.56;5066235;28;20218;-63
2023/10/05 10:15:00;;;;;;;7.70;3.45;;;;;;;29.74;43.33;100042.34;5066507;28;20202;-63
2023/10/05 10:17:33;;;;;;;6.82;3.55;;;;;;;29.60;42.80;100032.88;5066710;28;20231;-64
2023/10/05 10:20:18;;;;;;;6.75;3.47;;;;;;;29.25;43.88;100035.88;5067691;28;20199;-63
2023/10/05 10:22:50;;;;;;;6.85;3.42;;;;;;;29.23;44.04;100033.44;5068211;28;20203;-63
2023/10/05 10:25:31;;;;;;;8.60;4.28;;;;;;;29.52;45.52;100037.34;5071706;28;20217;-63
2023/10/05 10:28:18;;;;;;;7.00;2.80;;;;;;;29.59;44.80;100036.53;5071972;28;20229;-63
2023/10/05 10:30:48;;;;;;;5.35;3.15;;;;;;;29.72;43.16;100031.19;5071872;28;20389;-63
2023/10/05 10:33:27;;;;;;;6.78;3.50;;;;;;;29.58;44.26;100029.63;5071524;28;20234;-63
2023/10/05 10:35:54;;;;;;;7.88;3.40;;;;;;;29.50;43.33;100028.88;5071640;28;20195;-63
2023/10/05 10:38:21;;;;;;;6.07;3.38;;;;;;;29.70;43.99;100022.69;5071195;28;20226;-63
2023/10/05 10:41:07;;;;;;;7.25;3.25;;;;;;;29.77;44.69;100007.66;5071538;28;20213;-63
2023/10/05 10:43:36;;;;;;;5.30;3.08;;;;;;;29.77;44.51;100005.00;5071371;28;20280;-63
2023/10/05 10:46:13;;;;;;;6.65;3.22;;;;;;;29.05;41.79;99999.91;5071355;28;20202;-63
2023/10/05 10:48:58;;;;;;;6.45;3.45;;;;;;;28.93;44.61;99996.28;5071558;28;20198;-63
2023/10/05 10:51:31;;;;;;;6.60;3.50;;;;;;;29.23;42.06;99983.41;5070935;28;20226;-63
2023/10/05 10:54:00;;;;;;;6.32;3.42;;;;;;;29.50;44.54;99986.72;5071317;28;20695;-63
2023/10/05 10:56:34;;;;;;;5.20;2.90;;;;;;;29.60;43.35;99986.22;5071514;28;20207;-63
2023/10/05 10:59:11;;;;;;;8.98;3.30;;;;;;;29.80;43.53;99977.41;5070972;28;20252;-63
2023/10/05 11:01:44;;;;;;;5.50;3.00;;;;;;;29.92;43.24;99973.84;5071003;28;20655;-64
2023/10/05 11:04:23;;;;;;;6.70;3.78;;;;;;;29.79;40.34;99966.06;5070953;28;20187;-64
2023/10/05 11:06:59;;;;;;;6.28;3.17;;;;;;;29.71;42.82;99958.41;5071064;28;20201;-63
2023/10/05 11:09:36;;;;;;;4.80;2.70;;;;;;;29.89;43.83;99958.47;5071131;28;20210;-63
2023/10/05 11:12:11;;;;;;;7.85;3.13;;;;;;;30.01;42.02;99956.72;5070761;28;20202;-63
2023/10/05 11:14:43;;;;;;;5.07;2.97;;;;;;;30.26;43.13;99953.28;5070852;28;20206;-63
2023/10/05 11:17:31;;;;;;;6.30;3.47;;;;;;;30.26;42.90;99958.56;5070859;28;20293;-63
2023/10/05 11:20:12;;;;;;;5.35;3.00;;;;;;;30.28;41.97;99945.94;5071078;28;20675;-63
2023/10/05 11:22:43;;;;;;;6.15;3.30;;;;;;;30.31;41.33;99936.78;5070725;28;20221;-64
2023/10/05 11:25:23;;;;;;;7.80;3.50;;;;;;;30.19;41.96;99941.94;5070586;28;20234;-63
2023/10/05 11:27:55;;;;;;;7.15;3.58;;;;;;;30.20;42.66;99941.75;5070657;28;20211;-63
2023/10/05 11:30:39;;;;;;;5.63;3.17;;;;;;;30.12;41.23;99936.75;5070376;28;20206;-63
2023/10/05 11:33:15;;;;;;;6.57;3.42;;;;;;;30.21;43.26;99932.03;5070312;28;20210;-63
2023/10/05 11:35:48;;;;;;;5.93;2.78;;;;;;;30.23;42.36;99932.63;5070222;28;20205;-63
2023/10/05 11:38:16;;;;;;;7.88;3.75;;;;;;;30.11;43.07;99931.72;5069911;28;20727;-63
2023/10/05 11:40:49;;;;;;;7.35;3.65;;;;;;;29.82;41.79;99931.38;5070488;28;20203;-63
2023/10/05 11:43:20;;;;;;;6.45;3.03;;;;;;;29.90;42.20;99923.16;5070045;28;20188;-63
2023/10/05 11:46:12;;;;;;;6.82;3.30;;;;;;;29.88;44.74;99919.16;5070111;28;20205;-63
2023/10/05 11:48:48;;;;;;;7.90;3.38;;;;;;;29.89;43.59;99916.28;5070316;28;20203;-63
2023/10/05 11:51:19;;;;;;;7.93;3.40;;;;;;;29.89;43.63;99915.47;5069777;28;20285;-63
2023/10/05 11:53:47;;;;;;;6.60;3.35;;;;;;;29.94;41.95;99913.81;5069876;28;20225;-63
2023/10/05 11:56:17;;;;;;;5.15;2.92;;;;;;;29.99;44.15;99905.22;5070062;28;20203;-64
2023/10/05 11:58:46;;;;;;;7.15;3.13;;;;;;;30.01;44.56;99906.63;5070405;28;20234;-63
2023/10/05 12:01:17;;;;;;;5.60;3.30;;;;;;;29.88;41.73;99904.13;5069945;28;20210;-63
2023/10/05 12:03:45;;;;;;;5.03;2.55;;;;;;;29.62;40.71;99909.59;5069858;28;20195;-63
2023/10/05 12:06:12;;;;;;;9.30;3.55;;;;;;;29.76;41.55;99900.59;5069809;28;20195;-63
2023/10/05 12:08:41;;;;;;;8.68;2.80;;;;;;;29.38;39.73;99904.13;5069964;28;20241;-63
2023/10/05 12:11:10;;;;;;;6.05;3.13;;;;;;;29.35;40.52;99899.25;5069819;28;20480;-63
2023/10/05 12:13:38;;;;;;;6.03;3.20;;;;;;;29.43;40.83;99893.72;5069907;28;20286;-63
2023/10/05 12:16:11;;;;;;;4.38;2.95;;;;;;;29.41;41.39;99895.78;5069499;28;20240;-63
2023/10/05 12:18:41;;;;;;;6.55;3.22;;;;;;;29.27;41.53;99895.06;5069835;28;20231;-63
2023/10/05 12:21:10;;;;;;;5.25;2.92;;;;;;;29.40;42.60;99896.78;5069689;28;20222;-63
2023/10/05 12:23:37;;;;;;;4.47;2.75;;;;;;;29.33;42.74;99890.75;5069659;28;20241;-63
2023/10/05 12:26:10;;;;;;;6.72;2.97;;;;;;;29.24;42.51;99894.69;5069492;28;20603;-63
2023/10/05 12:28:40;;;;;;;5.75;3.10;;;;;;;29.30;42.84;99886.72;5069490;28;20209;-63
2023/10/05 12:31:09;;;;;;;9.13;3.17;;;;;;;29.17;42.58;99886.00;5069444;28;20244;-63
2023/10/05 12:33:39;;;;;;;5.03;3.00;;;;;;;29.21;40.99;99887.22;5069536;28;20689;-63
2023/10/05 12:36:09;;;;;;;6.20;3.35;;;;;;;29.17;42.36;99886.00;5069482;28;20207;-63
2023/10/05 12:38:36;;;;;;;4.03;2.45;;;;;;;29.09;43.47;99880.00;5069028;28;20322;-63
2023/10/05 12:41:12;;;;;;;9.45;3.05;;;;;;;29.07;43.72;99875.94;5069268;28;20703;-63
2023/10/05 12:43:43;;;;;;;6.97;3.50;;;;;;;29.05;44.16;99873.50;5068966;28;20293;-63
2023/10/05 12:46:11;;;;;;;9.30;4.15;;;;;;;29.02;40.58;99873.94;5068383;28;20698;-63
2023/10/05 12:48:39;;;;;;;6.88;3.42;;;;;;;29.07;43.01;99871.47;5068959;28;20244;-63
2023/10/05 12:51:08;;;;;;;5.75;3.13;;;;;;;28.88;41.74;99865.28;5068862;28;20206;-64
2023/10/05 12:53:36;;;;;;;5.72;3.13;;;;;;;29.09;43.03;99861.56;5068765;28;20280;-63
2023/10/05 12:56:03;;;;;;;5.22;2.95;;;;;;;29.14;42.68;99855.63;5068743;28;20199;-63
2023/10/05 12:58:32;;;;;;;5.68;3.20;;;;;;;29.01;41.65;99853.88;5068880;28;20241;-63
2023/10/05 13:01:07;;;;;;;5.90;3.42;;;;;;;28.95;42.50;99857.34;5069049;28;20202;-63
2023/10/05 13:03:37;;;;;;;5.60;3.03;;;;;;;28.99;43.51;99853.28;5068840;28;20715;-63
2023/10/05 13:06:10;;;;;;;4.25;2.72;;;;;;;28.97;40.25;99847.41;5068766;28;20199;-63
2023/10/05 13:08:43;;;;;;;7.18;2.88;;;;;;;29.01;42.83;99837.28;5068769;28;20756;-64
2023/10/05 13:11:11;;;;;;;8.52;3.35;;;;;;;28.68;40.98;99835.63;5068537;28;20198;-64
2023/10/05 13:13:39;;;;;;;6.65;3.03;;;;;;;28.61;41.48;99833.03;5068522;28;20238;-64
2023/10/05 13:16:13;;;;;;;6.00;3.05;;;;;;;28.59;42.49;99831.63;5068725;28;20202;-63
2023/10/05 13:18:41;;;;;;;9.43;3.22;;;;;;;28.45;41.96;99825.66;5068551;28;20722;-63
2023/10/05 13:21:09;;;;;;;5.25;3.25;;;;;;;28.41;41.60;99830.50;5068500;28;20194;-64
2023/10/05 13:23:36;;;;;;;4.20;2.90;;;;;;;28.19;41.20;99826.53;5068646;28;20211;-63
2023/10/05 13:26:06;;;;;;;5.53;3.17;;;;;;;28.25;41.95;99822.25;5068482;28;20205;-63
2023/10/05 13:28:33;;;;;;;12.70;3.40;;;;;;;28.25;41.97;99819.63;5068585;28;20627;-63
2023/10/05 13:31:06;;;;;;;5.53;3.00;;;;;;;28.20;41.85;99822.88;5068389;28;20206;-63
2023/10/05 13:33:34;;;;;;;6.38;3.28;;;;;;;28.10;41.46;99822.50;5068466;28;20195;-63
2023/10/05 13:36:07;;;;;;;4.88;2.88;;;;;;;27.97;42.34;99818.09;5068115;28;20659;-63
2023/10/05 13:38:34;;;;;;;4.85;2.75;;;;;;;27.81;42.26;99819.34;5068590;28;20264;-63
2023/10/05 13:41:18;;;;;;;6.00;3.22;;;;;;;27.64;41.51;99812.88;5068350;28;20234;-64
2023/10/05 13:43:48;;;;;;;5.85;2.80;;;;;;;27.49;41.55;99806.03;5068478;28;20675;-64
2023/10/05 13:46:18;;;;;;;6.72;3.42;;;;;;;27.33;42.23;99810.88;5067818;28;20219;-64
2023/10/05 13:48:48;;;;;;;6.85;3.40;;;;;;;27.31;42.36;99808.44;5068247;28;20214;-64
2023/10/05 13:51:16;;;;;;;8.55;3.20;;;;;;;27.23;43.30;99806.84;5067893;28;20199;-63
2023/10/05 13:53:45;;;;;;;6.28;2.83;;;;;;;27.16;43.51;99806.00;5068144;28;20224;-63
2023/10/05 13:56:13;;;;;;;11.85;3.70;;;;;;;27.10;43.97;99796.28;5068463;28;20249;-63
2023/10/05 13:58:43;;;;;;;7.68;3.60;;;;;;;26.86;42.76;99801.09;5069993;28;20613;-63
2023/10/05 14:01:15;;;;;;;6.97;3.05;;;;;;;26.81;44.16;99798.28;5072577;28;20194;-63
2023/10/05 14:03:44;;;;;;;6.78;3.30;;;;;;;26.71;43.99;99797.06;5072236;28;20264;-63
2023/10/05 14:06:11;;;;;;;7.45;3.30;;;;;;;26.61;44.07;99802.66;5072118;28;20203;-63
2023/10/05 14:08:38;;;;;;;4.53;2.47;;;;;;;26.60;45.08;99795.81;5072100;28;20285;-63
2023/10/05 14:11:09;;;;;;;7.88;3.33;;;;;;;26.59;45.21;99789.75;5071912;28;20585;-63
2023/10/05 14:13:36;;;;;;;5.30;3.17;;;;;;;26.54;43.97;99791.34;5072042;28;20221;-63
2023/10/05 14:16:03;;;;;;;7.45;3.20;;;;;;;26.41;44.95;99792.91;5071732;28;20205;-63
2023/10/05 14:18:33;;;;;;;6.35;3.28;;;;;;;26.42;45.04;99794.50;5071855;28;20195;-63
2023/10/05 14:21:02;;;;;;;5.93;2.85;;;;;;;26.42;44.81;99785.84;5071744;28;20210;-63
2023/10/05 14:23:29;;;;;;;7.97;3.20;;;;;;;26.38;45.52;99782.81;5071755;28;20199;-63
2023/10/05 14:25:56;;;;;;;8.07;3.40;;;;;;;26.34;45.73;99792.06;5071630;28;20585;-63
2023/10/05 14:28:25;;;;;;;8.90;3.60;;;;;;;26.30;45.61;99785.59;5072026;28;20205;-63
2023/10/05 14:30:52;;;;;;;8.27;3.50;;;;;;;26.26;46.20;99786.97;5071460;28;20199;-63
2023/10/05 14:33:22;;;;;;;8.35;3.65;;;;;;;26.26;45.67;99778.31;5071248;28;20209;-63
2023/10/05 14:35:51;;;;;;;7.90;3.67;;;;;;;26.22;46.22;99782.34;5069920;28;20199;-63
2023/10/05 14:38:19;;;;;;;7.55;3.83;;;;;;;26.14;45.75;99775.44;5069328;28;20218;-63
2023/10/05 14:40:50;;;;;;;8.13;3.47;;;;;;;26.07;45.26;99772.00;5069799;28;20234;-63
2023/10/05 14:43:28;;;;;;;6.25;3.15;;;;;;;26.03;45.37;99774.19;5071153;28;20303;-63
2023/10/05 14:45:57;;;;;;;10.20;3.65;;;;;;;25.94;45.57;99775.34;5071501;28;20198;-63
2023/10/05 14:48:29;;;;;;;8.05;3.40;;;;;;;25.92;45.44;99772.13;5071106;28;20210;-63
2023/10/05 14:50:59;;;;;;;6.38;3.00;;;;;;;25.84;44.31;99764.44;5071308;28;20203;-63
2023/10/05 14:53:26;;;;;;;8.98;3.67;;;;;;;25.75;44.54;99755.88;5071177;28;20207;-63
2023/10/05 14:55:53;;;;;;;8.60;3.50;;;;;;;25.71;45.08;99755.47;5071083;28;20215;-63
2023/10/05 14:58:22;;;;;;;6.88;3.28;;;;;;;25.68;44.86;99762.88;5071000;28;20202;-63
2023/10/05 15:00:49;;;;;;;6.60;3.42;;;;;;;25.59;45.02;99756.97;5071013;28;20306;-63
2023/10/05 15:03:17;;;;;;;7.35;3.63;;;;;;;25.58;45.49;99759.81;5070878;28;20657;-63
2023/10/05 15:05:44;;;;;;;6.63;3.13;;;;;;;25.51;45.47;99760.56;5071106;28;20199;-63
2023/10/05 15:08:13;;;;;;;5.97;2.95;;;;;;;25.46;45.65;99762.16;5070851;28;20717;-63
2023/10/05 15:10:41;;;;;;;6.70;3.35;;;;;;;25.41;45.65;99759.28;5070584;28;20203;-63
2023/10/05 15:13:08;;;;;;;6.22;2.92;;;;;;;25.34;46.43;99756.63;5070750;28;20199;-63
2023/10/05 15:15:35;;;;;;;6.43;2.83;;;;;;;25.25;46.20;99755.16;5070821;28;20214;-63
2023/10/05 15:18:03;;;;;;;13.52;3.35;;;;;;;25.18;45.63;99754.28;5070640;28;20207;-63
2023/10/05 15:20:30;;;;;;;5.85;2.80;;;;;;;25.07;45.69;99759.00;5070681;28;20230;-63
2023/10/05 15:22:58;;;;;;;4.97;2.75;;;;;;;24.98;45.50;99752.28;5070612;28;20313;-64
2023/10/05 15:25:26;;;;;;;7.55;3.00;;;;;;;24.92;45.54;99758.25;5070514;28;20199;-63
2023/10/05 15:27:53;;;;;;;7.00;3.08;;;;;;;24.85;45.31;99752.16;5070799;28;20213;-63
2023/10/05 15:30:21;;;;;;;9.55;3.78;;;;;;;24.77;45.99;99749.66;5070375;28;20412;-63
2023/10/05 15:32:49;;;;;;;5.95;3.08;;;;;;;24.68;45.57;99753.41;5070426;28;20207;-63
2023/10/05 15:35:17;;;;;;;7.20;3.40;;;;;;;24.55;45.73;99748.84;5070213;28;20207;-63
2023/10/05 15:37:46;;;;;;;6.82;2.70;;;;;;;24.46;46.66;99744.72;5070395;28;20458;-63
2023/10/05 15:40:15;;;;;;;8.45;2.95;;;;;;;24.33;47.00;99745.38;5070343;28;20235;-63
2023/10/05 15:42:44;;;;;;;6.28;2.60;;;;;;;24.23;47.22;99744.81;5070627;28;20241;-63
2023/10/05 15:45:13;;;;;;;7.00;3.17;;;;;;;24.11;47.76;99741.88;5070235;28;20672;-64
2023/10/05 15:47:42;;;;;;;6.95;3.03;;;;;;;23.97;48.02;99743.53;5069919;28;20219;-63
2023/10/05 15:50:13;;;;;;;9.13;3.17;;;;;;;23.82;47.73;99742.72;5070612;28;20210;-64
2023/10/05 15:52:44;;;;;;;5.30;2.72;;;;;;;23.74;49.00;99751.47;5069909;28;20199;-63
2023/10/05 15:55:12;;;;;;;7.60;2.97;;;;;;;23.60;49.49;99740.00;5069957;28;20202;-63
2023/10/05 15:57:41;;;;;;;6.47;2.85;;;;;;;23.47;49.59;99734.56;5070122;28;20234;-63
2023/10/05 16:00:16;;;;;;;10.00;3.25;;;;;;;23.32;49.20;99741.56;5069966;28;20231;-63
2023/10/05 16:02:47;;;;;;;8.25;3.10;;;;;;;23.16;49.22;99732.91;5070229;28;20202;-63
2023/10/05 16:05:16;;;;;;;6.40;3.00;;;;;;;23.07;50.88;99739.19;5069829;28;20590;-63
2023/10/05 16:07:45;;;;;;;7.95;3.25;;;;;;;22.98;51.37;99740.22;5069757;28;20229;-63
2023/10/05 16:10:12;;;;;;;7.82;3.00;;;;;;;22.86;50.73;99749.41;5069650;28;20206;-63
2023/10/05 16:12:39;;;;;;;5.82;3.00;;;;;;;22.75;52.11;99746.22;5069687;28;20202;-63
2023/10/05 16:15:07;;;;;;;5.80;2.70;;;;;;;22.65;51.72;99745.63;5069572;28;20199;-63
2023/10/05 16:17:39;;;;;;;5.47;2.88;;;;;;;22.54;52.26;99748.63;5069702;28;20571;-63
2023/10/05 16:20:08;;;;;;;6.78;3.03;;;;;;;22.46;52.46;99751.31;5069533;28;20238;-63
2023/10/05 16:22:37;;;;;;;5.65;3.05;;;;;;;22.30;51.67;99753.00;5069055;28;20201;-63
2023/10/05 16:25:10;;;;;;;5.38;2.80;;;;;;;22.15;51.13;99749.44;5069499;28;20195;-63
2023/10/05 16:27:37;;;;;;;5.25;2.78;;;;;;;22.06;51.58;99760.88;5069613;28;20278;-63
2023/10/05 16:30:07;;;;;;;7.15;3.00;;;;;;;21.98;52.47;99756.50;5069696;28;20388;-63
2023/10/05 16:32:36;;;;;;;8.97;4.47;;;;;;;21.86;52.42;99758.66;5069604;28;20547;-63
2023/10/05 16:35:05;;;;;;;13.03;5.13;;;;;;;21.81;52.88;99755.75;5069123;28;20206;-63
2023/10/05 16:37:33;;;;;;;12.23;4.23;;;;;;;21.72;53.45;99758.53;5069381;28;20197;-63
2023/10/05 16:40:00;;;;;;;8.40;4.03;;;;;;;21.64;53.69;99762.81;5068952;28;20634;-63
2023/10/05 16:42:26;;;;;;;7.63;3.70;;;;;;;21.56;53.36;99759.41;5069225;28;20238;-63
2023/10/05 16:44:53;;;;;;;7.87;3.50;;;;;;;21.50;53.68;99765.25;5069370;28;20296;-63
2023/10/05 16:47:21;;;;;;;8.10;3.57;;;;;;;21.45;53.59;99769.16;5069245;28;20205;-63
2023/10/05 16:49:52;;;;;;;13.43;3.83;;;;;;;21.38;53.80;99767.38;5068893;28;20588;-63
2023/10/05 16:52:19;;;;;;;6.73;3.40;;;;;;;21.30;54.26;99770.78;5068638;28;20236;-63
2023/10/05 16:54:46;;;;;;;8.97;3.13;;;;;;;21.29;54.28;99774.31;5068771;28;20208;-63
2023/10/05 16:57:13;;;;;;;5.80;2.67;;;;;;;21.25;54.87;99773.03;5068867;28;20221;-63
2023/10/05 16:59:41;;;;;;;5.03;2.80;;;;;;;21.22;55.21;99768.16;5068572;28;20237;-63
2023/10/05 17:02:08;;;;;;;7.03;3.03;;;;;;;21.16;55.29;99768.81;5068652;28;20716;-63
2023/10/05 17:04:35;;;;;;;6.07;3.27;;;;;;;21.12;55.13;99767.50;5069055;28;20203;-63
2023/10/05 17:07:05;;;;;;;6.13;2.70;;;;;;;21.00;54.35;99764.41;5068822;28;20204;-63
2023/10/05 17:09:32;;;;;;;7.13;2.53;;;;;;;20.98;54.63;99766.38;5068652;28;20577;-63
2023/10/05 17:12:00;;;;;;;8.07;3.30;;;;;;;20.93;54.33;99764.25;5068963;28;20589;-63
2023/10/05 17:14:27;;;;;;;12.67;2.97;;;;;;;20.92;54.95;99770.44;5069112;28;20299;-63
2023/10/05 17:16:55;;;;;;;4.37;2.70;;;;;;;20.91;55.57;99770.56;5068566;28;20692;-63
2023/10/05 17:19:22;;;;;;;5.20;2.93;;;;;;;20.88;56.30;99760.50;5068415;28;20204;-63
2023/10/05 17:21:49;;;;;;;6.23;2.73;;;;;;;20.85;57.04;99764.22;5068430;28;20295;-63
2023/10/05 17:24:17;;;;;;;8.00;3.50;;;;;;;20.76;57.80;99763.41;5068796;28;20223;-63
2023/10/05 17:26:44;;;;;;;6.40;3.23;;;;;;;20.71;58.57;99767.47;5068400;28;20205;-63
2023/10/05 17:29:12;;;;;;;7.93;3.20;;;;;;;20.68;59.28;99760.81;5068314;28;20437;-63